createdAt,value
2022-12-03T00:00:16.081Z,12.60
2022-12-03T00:02:44.518Z,12.30
2022-12-03T00:05:12.895Z,10.87
2022-12-03T00:07:41.883Z,13.02
2022-12-03T00:10:10.631Z,14.02
2022-12-03T00:12:38.835Z,13.18
2022-12-03T00:15:10.101Z,12.75
2022-12-03T00:17:38.186Z,14.30
2022-12-03T00:20:08.053Z,14.07
2022-12-03T00:22:36.193Z,14.77
2022-12-03T00:25:05.504Z,15.70
2022-12-03T00:27:33.593Z,14.63
2022-12-03T00:30:01.696Z,14.90
2022-12-03T00:32:31.142Z,13.90
2022-12-03T00:34:59.240Z,14.27
2022-12-03T00:37:27.370Z,16.63
2022-12-03T00:39:55.535Z,15.27
2022-12-03T00:42:24.143Z,15.68
2022-12-03T00:44:52.537Z,12.10
2022-12-03T00:47:20.841Z,15.33
2022-12-03T00:49:50.329Z,15.02
2022-12-03T00:54:46.474Z,14.63
2022-12-03T00:57:14.591Z,15.15
2022-12-03T00:59:42.733Z,13.95
2022-12-03T01:02:11.183Z,14.60
2022-12-03T01:04:39.658Z,14.18
2022-12-03T01:07:09.882Z,11.10
2022-12-03T01:09:38.354Z,15.75
2022-12-03T01:12:07.049Z,15.88
2022-12-03T01:14:35.248Z,12.98
2022-12-03T01:17:03.358Z,15.52
2022-12-03T01:19:31.611Z,15.13
2022-12-03T01:21:59.779Z,14.75
2022-12-03T01:24:29.536Z,16.05
2022-12-03T01:26:57.866Z,14.80
2022-12-03T01:29:26.300Z,14.18
2022-12-03T01:32:23.725Z,15.27
2022-12-03T01:34:54.101Z,15.02
2022-12-03T01:37:24.330Z,12.73
2022-12-03T01:39:54.135Z,13.15
2022-12-03T01:42:24.925Z,13.68
2022-12-03T01:44:54.916Z,13.60
2022-12-03T01:47:28.459Z,15.32
2022-12-03T01:50:01.183Z,14.57
2022-12-03T01:52:33.091Z,13.98
2022-12-03T01:55:05.596Z,13.68
2022-12-03T01:57:40.847Z,13.90
2022-12-03T02:00:14.161Z,14.75
2022-12-03T02:02:42.753Z,14.60
2022-12-03T02:05:17.474Z,13.63
2022-12-03T02:07:45.607Z,14.63
2022-12-03T02:10:16.724Z,15.75
2022-12-03T02:12:51.585Z,14.60
2022-12-03T02:15:19.868Z,17.30
2022-12-03T02:17:48.098Z,16.73
2022-12-03T02:20:16.560Z,16.73
2022-12-03T02:22:53.692Z,16.27
2022-12-03T02:25:25.550Z,15.65
2022-12-03T02:27:55.760Z,16.85
2022-12-03T02:30:26.806Z,16.23
2022-12-03T02:32:56.756Z,16.08
2022-12-03T02:35:27.160Z,17.63
2022-12-03T02:37:59.388Z,17.73
2022-12-03T02:40:32.254Z,16.17
2022-12-03T02:43:03.378Z,17.75
2022-12-03T02:45:34.578Z,17.15
2022-12-03T02:48:06.702Z,16.73
2022-12-03T02:50:37.813Z,17.67
2022-12-03T02:53:09.509Z,17.58
2022-12-03T02:55:39.415Z,18.98
2022-12-03T02:58:07.779Z,16.08
2022-12-03T03:00:37.260Z,18.38
2022-12-03T03:05:36.745Z,16.52
2022-12-03T03:08:05.931Z,15.85
2022-12-03T03:10:36.130Z,17.30
2022-12-03T03:13:09.118Z,18.50
2022-12-03T03:15:37.817Z,18.45
2022-12-03T03:18:06.409Z,18.45
2022-12-03T03:20:34.661Z,19.08
2022-12-03T03:23:07.359Z,19.52
2022-12-03T03:25:35.518Z,19.88
2022-12-03T03:28:05.218Z,20.20
2022-12-03T03:30:34.100Z,18.92
2022-12-03T03:33:02.738Z,17.55
2022-12-03T03:35:30.951Z,17.23
2022-12-03T03:37:59.770Z,17.77
2022-12-03T03:40:28.936Z,17.45
2022-12-03T03:42:57.752Z,17.50
2022-12-03T03:45:29.520Z,16.55
2022-12-03T03:47:59.180Z,16.02
2022-12-03T03:50:29.348Z,17.63
2022-12-03T03:52:58.880Z,17.23
2022-12-03T03:57:55.593Z,16.25
2022-12-03T04:00:24.791Z,19.85
2022-12-03T04:02:55.469Z,19.10
2022-12-03T04:05:25.413Z,18.42
2022-12-03T04:07:53.535Z,18.70
2022-12-03T04:10:39.111Z,19.02
2022-12-03T04:13:07.579Z,18.20
2022-12-03T04:15:35.741Z,20.08
2022-12-03T04:18:23.308Z,17.13
2022-12-03T04:20:51.402Z,19.90
2022-12-03T04:23:18.617Z,19.40
2022-12-03T04:26:03.414Z,18.90
2022-12-03T04:28:49.144Z,18.55
2022-12-03T04:31:49.156Z,19.42
2022-12-03T04:34:36.111Z,18.35
2022-12-03T04:37:04.702Z,17.75
2022-12-03T04:39:32.862Z,16.90
2022-12-03T04:42:01.001Z,18.80
2022-12-03T04:44:36.304Z,17.40
2022-12-03T04:47:08.124Z,18.33
2022-12-03T04:49:40.778Z,15.82
2022-12-03T04:52:09.649Z,16.92
2022-12-03T04:54:38.070Z,17.02
2022-12-03T04:57:06.584Z,18.30
2022-12-03T04:59:35.973Z,15.25
2022-12-03T05:02:04.542Z,18.33
2022-12-03T05:04:32.965Z,18.47
2022-12-03T05:07:02.614Z,18.70
2022-12-03T05:09:30.843Z,17.98
2022-12-03T05:11:58.959Z,19.05
2022-12-03T05:14:27.432Z,18.85
2022-12-03T05:16:55.623Z,18.77
2022-12-03T05:19:44.539Z,21.85
2022-12-03T05:22:12.992Z,17.27
2022-12-03T05:24:41.094Z,17.48
2022-12-03T05:27:09.345Z,18.05
2022-12-03T05:29:37.470Z,19.05
2022-12-03T05:32:05.838Z,18.63
2022-12-03T05:34:34.066Z,16.27
2022-12-03T05:37:02.137Z,18.02
2022-12-03T05:39:31.650Z,16.30
2022-12-03T05:44:44.930Z,16.85
2022-12-03T05:47:13.218Z,17.52
2022-12-03T05:49:41.503Z,21.55
2022-12-03T05:52:09.570Z,19.50
2022-12-03T05:54:39.037Z,18.50
2022-12-03T05:57:07.212Z,20.40
2022-12-03T05:59:35.482Z,19.48
2022-12-03T06:02:03.731Z,18.70
2022-12-03T06:04:32.334Z,17.90
2022-12-03T06:07:00.425Z,17.87
2022-12-03T06:09:28.699Z,17.92
2022-12-03T06:11:58.257Z,18.67
2022-12-03T06:16:54.665Z,18.70
2022-12-03T06:19:22.751Z,19.55
2022-12-03T06:21:50.922Z,18.90
2022-12-03T06:24:19.142Z,21.58
2022-12-03T06:26:47.286Z,19.35
2022-12-03T06:29:16.768Z,18.77
2022-12-03T06:34:12.902Z,17.23
2022-12-03T06:36:41.133Z,17.10
2022-12-03T06:39:09.352Z,18.63
2022-12-03T06:41:52.697Z,17.42
2022-12-03T06:44:22.480Z,18.33
2022-12-03T06:46:50.671Z,19.35
2022-12-03T06:49:18.884Z,19.23
2022-12-03T06:51:47.171Z,19.77
2022-12-03T06:54:15.314Z,20.42
2022-12-03T06:56:45.638Z,19.35
2022-12-03T06:59:14.281Z,19.50
2022-12-03T07:01:44.333Z,18.73
2022-12-03T07:04:12.509Z,17.80
2022-12-03T07:06:41.045Z,18.83
2022-12-03T07:09:09.243Z,13.30
2022-12-03T07:11:40.832Z,22.60
2022-12-03T07:14:11.539Z,21.52
2022-12-03T07:16:40.631Z,17.73
2022-12-03T07:19:11.299Z,15.20
2022-12-03T07:21:39.860Z,17.58
2022-12-03T07:24:08.408Z,18.50
2022-12-03T07:26:36.654Z,12.73
2022-12-03T07:29:04.887Z,18.80
2022-12-03T07:31:33.312Z,18.80
2022-12-03T07:34:01.494Z,19.48
2022-12-03T07:36:30.956Z,19.75
2022-12-03T07:38:59.054Z,17.30
2022-12-03T07:41:27.159Z,19.02
2022-12-03T07:43:55.313Z,20.10
2022-12-03T07:46:23.493Z,19.10
2022-12-03T07:48:51.639Z,19.25
2022-12-03T07:51:19.799Z,17.13
2022-12-03T07:53:49.284Z,17.67
2022-12-03T07:58:45.878Z,16.80
2022-12-03T08:01:14.121Z,18.08
2022-12-03T08:03:42.948Z,19.38
2022-12-03T08:06:11.132Z,13.85
2022-12-03T08:08:39.441Z,17.63
2022-12-03T08:11:14.308Z,20.55
2022-12-03T08:13:42.804Z,21.65
2022-12-03T08:16:17.536Z,20.73
2022-12-03T08:18:46.385Z,19.05
2022-12-03T08:21:16.713Z,18.60
2022-12-03T08:23:45.232Z,18.90
2022-12-03T08:26:21.698Z,17.17
2022-12-03T08:28:49.956Z,21.23
2022-12-03T08:31:20.588Z,18.67
2022-12-03T08:33:49.996Z,19.23
2022-12-03T08:36:22.614Z,18.60
2022-12-03T08:38:53.055Z,23.27
2022-12-03T08:41:36.972Z,20.65
2022-12-03T08:44:16.543Z,19.75
2022-12-03T08:49:12.708Z,16.63
2022-12-03T08:51:40.802Z,20.17
2022-12-03T08:54:14.175Z,20.27
2022-12-03T08:56:44.942Z,18.15
2022-12-03T08:59:25.990Z,17.75
2022-12-03T09:01:55.187Z,20.10
2022-12-03T09:04:30.148Z,20.60
2022-12-03T09:06:58.802Z,17.92
2022-12-03T09:09:27.349Z,20.33
2022-12-03T09:11:57.366Z,18.27
2022-12-03T09:14:25.499Z,19.13
2022-12-03T09:16:55.987Z,17.63
2022-12-03T09:19:25.679Z,18.35
2022-12-03T09:21:54.028Z,19.90
2022-12-03T09:24:22.706Z,19.77
2022-12-03T09:26:51.189Z,14.90
2022-12-03T09:29:20.677Z,18.77
2022-12-03T09:34:19.865Z,19.23
2022-12-03T09:36:50.963Z,19.48
2022-12-03T09:39:19.264Z,18.05
2022-12-03T09:41:48.162Z,17.42
2022-12-03T09:44:18.234Z,15.50
2022-12-03T09:46:49.245Z,18.65
2022-12-03T09:49:18.995Z,18.17
2022-12-03T09:51:47.757Z,18.70
2022-12-03T09:54:24.979Z,15.18
2022-12-03T09:56:53.681Z,17.52
2022-12-03T09:59:23.232Z,14.05
2022-12-03T10:04:21.665Z,16.00
2022-12-03T10:06:50.034Z,19.63
2022-12-03T10:09:25.717Z,18.63
2022-12-03T10:11:54.005Z,18.63
2022-12-03T10:14:22.197Z,20.08
2022-12-03T10:16:51.917Z,18.92
2022-12-03T10:19:24.118Z,20.17
2022-12-03T10:21:52.538Z,21.05
2022-12-03T10:24:23.915Z,21.80
2022-12-03T10:26:54.079Z,19.90
2022-12-03T10:29:28.158Z,21.45
2022-12-03T10:32:03.122Z,20.08
2022-12-03T10:34:33.272Z,19.80
2022-12-03T10:37:13.051Z,20.60
2022-12-03T10:39:56.577Z,18.85
2022-12-03T10:42:26.542Z,17.70
2022-12-03T10:45:14.533Z,19.48
2022-12-03T10:47:45.493Z,18.92
2022-12-03T10:50:18.964Z,19.70
2022-12-03T10:52:48.264Z,19.63
2022-12-03T10:55:17.354Z,20.73
2022-12-03T10:57:46.322Z,24.38
2022-12-03T11:00:18.659Z,22.00
2022-12-03T11:02:54.894Z,20.23
2022-12-03T11:05:27.897Z,19.40
2022-12-03T11:07:57.166Z,19.27
2022-12-03T11:10:26.452Z,19.88
2022-12-03T11:13:28.542Z,21.58
2022-12-03T11:15:57.343Z,20.40
2022-12-03T11:19:02.351Z,16.08
2022-12-03T11:21:31.678Z,22.10
2022-12-03T11:24:16.755Z,20.80
2022-12-03T11:27:20.705Z,21.77
2022-12-03T11:29:58.663Z,22.00
2022-12-03T11:33:06.241Z,20.77
2022-12-03T11:36:07.086Z,21.20
2022-12-03T11:38:54.507Z,22.60
2022-12-03T11:41:26.375Z,21.85
2022-12-03T11:44:29.202Z,21.10
2022-12-03T11:46:59.305Z,23.08
2022-12-03T11:49:36.510Z,21.85
2022-12-03T11:52:20.107Z,21.98
2022-12-03T11:54:53.936Z,20.65
2022-12-03T11:57:35.377Z,20.88
2022-12-03T12:00:09.358Z,20.80
2022-12-03T12:02:37.805Z,22.95
2022-12-03T12:05:20.823Z,20.95
2022-12-03T12:07:49.442Z,20.55
2022-12-03T12:10:40.392Z,21.40
2022-12-03T12:13:25.851Z,22.30
2022-12-03T12:15:54.857Z,22.42
2022-12-03T12:18:36.417Z,22.27
2022-12-03T12:21:42.133Z,22.80
2022-12-03T12:24:32.558Z,19.77
2022-12-03T12:27:04.287Z,21.20
2022-12-03T12:29:32.613Z,21.70
2022-12-03T12:32:12.043Z,21.88
2022-12-03T12:34:41.012Z,20.55
2022-12-03T12:37:13.574Z,21.38
2022-12-03T12:39:41.791Z,22.73
2022-12-03T12:42:34.314Z,21.70
2022-12-03T12:45:13.573Z,22.58
2022-12-03T12:47:48.336Z,24.60
2022-12-03T12:50:17.756Z,25.73
2022-12-03T12:52:52.297Z,29.55
2022-12-03T12:55:20.597Z,21.20
2022-12-03T12:57:50.124Z,25.13
2022-12-03T13:02:51.597Z,24.88
2022-12-03T13:05:20.161Z,22.40
2022-12-03T13:07:48.645Z,23.67
2022-12-03T13:10:36.607Z,26.23
2022-12-03T13:13:27.640Z,22.73
2022-12-03T13:16:02.040Z,22.65
2022-12-03T13:18:36.363Z,22.55
2022-12-03T13:21:15.036Z,26.13
2022-12-03T13:23:43.177Z,18.05
2022-12-03T13:26:38.091Z,26.60
2022-12-03T13:29:14.533Z,25.98
2022-12-03T13:31:46.484Z,23.48
2022-12-03T13:34:19.857Z,24.55
2022-12-03T13:36:55.459Z,26.15
2022-12-03T13:39:30.586Z,26.58
2022-12-03T13:42:17.845Z,26.27
2022-12-03T13:44:50.029Z,25.45
2022-12-03T13:47:21.970Z,22.95
2022-12-03T13:49:53.684Z,24.83
2022-12-03T13:52:25.055Z,26.35
2022-12-03T13:54:55.924Z,26.35
2022-12-03T13:57:24.196Z,25.58
2022-12-03T13:59:54.150Z,27.48
2022-12-03T14:02:22.500Z,26.88
2022-12-03T14:04:53.080Z,25.17
2022-12-03T14:07:22.647Z,25.98
2022-12-03T14:09:50.809Z,24.52
2022-12-03T14:12:27.631Z,24.77
2022-12-03T14:14:57.218Z,28.77
2022-12-03T14:19:53.609Z,26.90
2022-12-03T14:22:25.408Z,25.35
2022-12-03T14:24:54.597Z,28.98
2022-12-03T14:27:24.546Z,29.60
2022-12-03T14:29:53.306Z,27.30
2022-12-03T14:32:23.194Z,27.55
2022-12-03T14:37:19.970Z,32.17
2022-12-03T14:39:48.094Z,30.10
2022-12-03T14:42:17.098Z,28.55
2022-12-03T14:44:47.574Z,22.10
2022-12-03T14:47:17.899Z,30.42
2022-12-03T14:49:47.470Z,30.02
2022-12-03T14:54:44.260Z,29.88
2022-12-03T14:57:14.383Z,39.60
2022-12-03T14:59:42.881Z,33.63
2022-12-03T15:02:12.546Z,26.83
2022-12-03T15:04:41.435Z,31.23
2022-12-03T15:07:11.426Z,30.17
2022-12-03T15:09:39.483Z,32.05
2022-12-03T15:12:08.477Z,29.52
2022-12-03T15:14:36.705Z,26.10
2022-12-03T15:17:04.904Z,29.17
2022-12-03T15:19:33.120Z,29.58
2022-12-03T15:22:01.264Z,32.05
2022-12-03T15:24:31.302Z,32.60
2022-12-03T15:26:59.817Z,28.70
2022-12-03T15:29:27.983Z,31.38
2022-12-03T15:31:56.139Z,33.03
2022-12-03T15:34:24.317Z,28.15
2022-12-03T15:36:53.102Z,32.60
2022-12-03T15:39:21.447Z,31.52
2022-12-03T15:41:50.956Z,32.03
2022-12-03T15:46:47.112Z,31.60
2022-12-03T15:49:15.285Z,34.65
2022-12-03T15:51:43.712Z,31.20
2022-12-03T15:54:12.416Z,31.40
2022-12-03T15:56:41.065Z,30.30
2022-12-03T15:59:10.742Z,29.20
2022-12-03T16:01:38.978Z,32.97
2022-12-03T16:04:07.151Z,34.92
2022-12-03T16:06:35.353Z,32.30
2022-12-03T16:09:03.699Z,31.05
2022-12-03T16:11:31.831Z,30.88
2022-12-03T16:13:59.951Z,28.38
2022-12-03T16:16:29.464Z,32.55
2022-12-03T16:21:27.234Z,35.03
2022-12-03T16:23:55.879Z,33.60
2022-12-03T16:26:24.007Z,32.30
2022-12-03T16:28:52.125Z,29.17
2022-12-03T16:31:20.625Z,27.33
2022-12-03T16:33:50.589Z,33.53
2022-12-03T16:36:18.963Z,28.92
2022-12-03T16:38:47.209Z,34.40
2022-12-03T16:41:15.308Z,31.10
2022-12-03T16:43:46.047Z,28.02
2022-12-03T16:46:26.074Z,32.13
2022-12-03T16:48:57.945Z,34.70
2022-12-03T16:51:27.515Z,27.80
2022-12-03T16:56:23.650Z,29.60
2022-12-03T16:58:52.143Z,31.90
2022-12-03T17:01:20.533Z,29.25
2022-12-03T17:03:48.790Z,33.13
2022-12-03T17:06:18.303Z,34.72
2022-12-03T17:08:49.706Z,33.78
2022-12-03T17:11:18.575Z,33.25
2022-12-03T17:13:46.705Z,30.40
2022-12-03T17:16:14.947Z,30.50
2022-12-03T17:18:43.158Z,30.35
2022-12-03T17:21:11.340Z,29.85
2022-12-03T17:23:40.873Z,31.35
2022-12-03T17:28:37.125Z,34.45
2022-12-03T17:31:05.627Z,31.05
2022-12-03T17:33:33.776Z,24.93
2022-12-03T17:36:02.090Z,32.03
2022-12-03T17:38:34.100Z,35.45
2022-12-03T17:41:08.535Z,33.08
2022-12-03T17:43:36.826Z,31.52
2022-12-03T17:46:06.763Z,34.45
2022-12-03T17:48:35.588Z,34.80
2022-12-03T17:51:04.113Z,36.33
2022-12-03T17:53:32.337Z,34.17
2022-12-03T17:56:00.619Z,36.15
2022-12-03T17:58:30.287Z,37.75
2022-12-03T18:01:02.462Z,34.90
2022-12-03T18:03:31.667Z,35.97
2022-12-03T18:06:00.106Z,34.72
2022-12-03T18:08:28.237Z,32.17
2022-12-03T18:10:56.560Z,35.83
2022-12-03T18:13:24.805Z,38.45
2022-12-03T18:15:54.388Z,35.60
2022-12-03T18:20:50.799Z,33.80
2022-12-03T18:23:18.914Z,30.77
2022-12-03T18:25:46.991Z,34.35
2022-12-03T18:28:15.537Z,35.17
2022-12-03T18:30:47.687Z,33.67
2022-12-03T18:33:23.365Z,32.95
2022-12-03T18:35:54.766Z,34.97
2022-12-03T18:38:24.016Z,31.80
2022-12-03T18:40:55.583Z,31.83
2022-12-03T18:43:23.978Z,33.53
2022-12-03T18:45:52.446Z,32.47
2022-12-03T18:48:22.097Z,33.30
2022-12-03T18:50:50.181Z,30.23
2022-12-03T18:53:20.287Z,30.75
2022-12-03T18:55:49.192Z,35.20
2022-12-03T18:58:17.401Z,31.65
2022-12-03T19:00:45.558Z,28.77
2022-12-03T19:03:13.962Z,30.52
2022-12-03T19:05:43.547Z,30.42
2022-12-03T19:10:44.241Z,32.80
2022-12-03T19:13:12.899Z,31.45
2022-12-03T19:15:41.605Z,30.02
2022-12-03T19:18:10.151Z,23.67
2022-12-03T19:20:42.023Z,31.17
2022-12-03T19:23:11.868Z,31.35
2022-12-03T19:25:40.406Z,32.90
2022-12-03T19:28:08.890Z,29.55
2022-12-03T19:30:37.479Z,28.67
2022-12-03T19:33:05.858Z,32.08
2022-12-03T19:35:39.677Z,30.33
2022-12-03T19:38:07.847Z,30.42
2022-12-03T19:40:38.076Z,35.60
2022-12-03T19:43:06.417Z,34.72
2022-12-03T19:45:37.042Z,32.92
2022-12-03T19:48:05.387Z,32.13
2022-12-03T19:50:33.923Z,32.80
2022-12-03T19:53:02.355Z,33.50
2022-12-03T19:55:30.470Z,31.10
2022-12-03T19:57:59.947Z,31.52
2022-12-03T20:00:28.068Z,31.33
2022-12-03T20:02:56.385Z,32.70
2022-12-03T20:05:27.819Z,33.10
2022-12-03T20:07:58.547Z,32.50
2022-12-03T20:10:26.731Z,34.95
2022-12-03T20:12:54.821Z,30.20
2022-12-03T20:15:24.412Z,33.17
2022-12-03T20:20:20.676Z,32.83
2022-12-03T20:22:49.292Z,30.15
2022-12-03T20:25:17.648Z,24.70
2022-12-03T20:27:45.875Z,32.92
2022-12-03T20:30:14.761Z,31.77
2022-12-03T20:32:45.674Z,33.47
2022-12-03T20:35:13.920Z,32.00
2022-12-03T20:37:42.238Z,29.50
2022-12-03T20:40:11.514Z,28.65
2022-12-03T20:42:39.641Z,29.25
2022-12-03T20:45:08.897Z,30.10
2022-12-03T20:47:37.035Z,29.38
2022-12-03T20:50:08.313Z,30.73
2022-12-03T20:52:36.789Z,29.38
2022-12-03T20:55:05.281Z,32.10
2022-12-03T20:57:33.418Z,32.35
2022-12-03T21:00:01.555Z,28.67
2022-12-03T21:02:29.681Z,32.15
2022-12-03T21:04:57.939Z,33.53
2022-12-03T21:07:27.444Z,31.95
2022-12-03T21:12:24.097Z,29.02
2022-12-03T21:14:52.431Z,33.10
2022-12-03T21:17:20.769Z,30.15
2022-12-03T21:19:49.165Z,32.30
2022-12-03T21:22:17.350Z,33.10
2022-12-03T21:24:47.064Z,31.45
2022-12-03T21:27:21.170Z,32.60
2022-12-03T21:29:49.855Z,32.35
2022-12-03T21:32:18.313Z,32.25
2022-12-03T21:34:46.729Z,30.85
2022-12-03T21:37:14.878Z,34.38
2022-12-03T21:39:43.177Z,29.17
2022-12-03T21:42:19.063Z,35.85
2022-12-03T21:47:33.516Z,31.23
2022-12-03T21:50:06.173Z,31.77
2022-12-03T21:52:35.344Z,30.63
2022-12-03T21:55:03.443Z,31.38
2022-12-03T21:57:33.014Z,32.20
2022-12-03T22:02:29.401Z,30.83
2022-12-03T22:04:58.363Z,33.22
2022-12-03T22:07:27.258Z,22.85
2022-12-03T22:09:55.699Z,30.02
2022-12-03T22:12:24.029Z,31.80
2022-12-03T22:14:53.946Z,30.65
2022-12-03T22:17:22.435Z,30.58
2022-12-03T22:19:50.583Z,30.60
2022-12-03T22:22:18.732Z,32.03
2022-12-03T22:24:47.078Z,33.35
2022-12-03T22:27:15.885Z,31.08
2022-12-03T22:29:44.145Z,23.92
2022-12-03T22:32:13.618Z,31.13
2022-12-03T22:37:11.069Z,29.75
2022-12-03T22:39:39.562Z,30.43
2022-12-03T22:42:07.683Z,23.97
2022-12-03T22:44:36.261Z,30.58
2022-12-03T22:47:04.948Z,29.60
2022-12-03T22:49:35.036Z,29.42
2022-12-03T22:52:03.153Z,27.63
2022-12-03T22:54:31.280Z,30.10
2022-12-03T22:56:59.429Z,30.45
2022-12-03T22:59:27.574Z,27.77
2022-12-03T23:01:55.774Z,28.92
2022-12-03T23:04:24.074Z,30.95
2022-12-03T23:06:53.526Z,28.70
2022-12-03T23:09:21.789Z,30.75
2022-12-03T23:11:49.934Z,26.50
2022-12-03T23:14:18.004Z,26.15
2022-12-03T23:16:46.096Z,27.00
2022-12-03T23:19:14.727Z,26.80
2022-12-03T23:21:42.853Z,21.27
2022-12-03T23:24:13.644Z,27.23
2022-12-03T23:26:41.947Z,28.30
2022-12-03T23:29:10.047Z,27.15
2022-12-03T23:31:38.441Z,28.23
2022-12-03T23:34:07.267Z,30.95
2022-12-03T23:36:35.501Z,28.00
2022-12-03T23:39:03.772Z,28.63
2022-12-03T23:41:33.334Z,29.17
2022-12-03T23:46:29.608Z,29.75
2022-12-03T23:49:00.240Z,29.00
2022-12-03T23:51:28.890Z,28.00
2022-12-03T23:53:58.167Z,29.33
2022-12-03T23:56:29.321Z,28.05
2022-12-03T23:58:59.533Z,28.35
